Time;durP1;ratioP1;P1;durP2;ratioP2;P2;SDS_P1;SDS_P2;PMS_P1;PMS_P2;Temp;Humidity;BMP_temperature;BMP_pressure;BME280_temperature;BME280_humidity;BME280_pressure;Samples;Min_cycle;Max_cycle;Signal;HPM_P1;HPM_P2
2021/08/21 00:01:10;;;;;;;16.95;14.20;;;;;;;11.93;100.00;99366.88;1636125;85;21489;-62
2021/08/21 00:03:37;;;;;;;19.95;15.03;;;;;;;11.94;100.00;99373.89;1679723;84;20938;-62
2021/08/21 00:06:04;;;;;;;20.27;14.38;;;;;;;12.03;100.00;99372.30;1648642;85;21426;-64
2021/08/21 00:08:30;;;;;;;20.32;14.68;;;;;;;12.03;100.00;99366.91;1633756;86;21088;-64
2021/08/21 00:10:59;;;;;;;21.45;15.95;;;;;;;12.02;100.00;99363.94;1625516;86;21475;-64
2021/08/21 00:13:25;;;;;;;20.15;15.65;;;;;;;12.11;100.00;99367.72;1633060;86;20979;-64
2021/08/21 00:15:53;;;;;;;34.23;16.73;;;;;;;12.11;100.00;99373.64;1666346;84;21209;-64
2021/08/21 00:18:21;;;;;;;21.42;15.03;;;;;;;12.00;100.00;99368.77;1643166;85;20978;-63
2021/08/21 00:20:49;;;;;;;19.90;15.98;;;;;;;11.94;100.00;99365.82;1656734;86;21009;-64
2021/08/21 00:23:16;;;;;;;20.40;16.42;;;;;;;11.98;100.00;99366.37;1651890;84;22228;-63
2021/08/21 00:25:43;;;;;;;21.17;16.65;;;;;;;12.05;100.00;99364.73;1633212;85;21074;-63
2021/08/21 00:28:09;;;;;;;21.73;16.82;;;;;;;12.13;100.00;99366.92;1640006;86;21514;-65
2021/08/21 00:30:37;;;;;;;23.67;16.87;;;;;;;12.15;100.00;99366.63;1634160;85;21028;-63
2021/08/21 00:33:04;;;;;;;29.50;16.73;;;;;;;12.15;100.00;99358.56;1665594;84;21438;-63
2021/08/21 00:35:31;;;;;;;20.57;15.35;;;;;;;12.18;100.00;99358.05;1646984;84;21140;-63
2021/08/21 00:37:57;;;;;;;27.00;16.10;;;;;;;12.21;100.00;99356.16;1653459;85;21509;-63
2021/08/21 00:40:23;;;;;;;19.23;15.50;;;;;;;12.28;100.00;99352.66;1649663;85;21049;-63
2021/08/21 00:42:51;;;;;;;19.52;16.12;;;;;;;12.32;100.00;99355.60;1648273;86;21195;-63
2021/08/21 00:45:19;;;;;;;25.57;15.43;;;;;;;12.35;100.00;99351.84;1661619;84;21663;-65
2021/08/21 00:47:45;;;;;;;19.17;14.70;;;;;;;12.47;100.00;99351.58;1628121;85;21154;-63
2021/08/21 00:50:12;;;;;;;23.22;15.25;;;;;;;12.43;100.00;99347.80;1631004;86;21625;-64
2021/08/21 00:52:39;;;;;;;20.30;16.37;;;;;;;12.44;100.00;99345.36;1645443;85;21225;-63
2021/08/21 00:55:09;;;;;;;22.15;16.12;;;;;;;12.48;100.00;99344.30;1664645;83;21055;-63
2021/08/21 00:57:35;;;;;;;18.92;16.05;;;;;;;12.45;100.00;99347.00;1644435;85;21474;-64
2021/08/21 01:00:03;;;;;;;21.48;15.45;;;;;;;12.41;100.00;99351.30;1636410;86;21146;-63
2021/08/21 01:02:31;;;;;;;22.00;16.10;;;;;;;12.39;100.00;99350.75;1644096;86;21081;-63
2021/08/21 01:04:58;;;;;;;23.57;15.78;;;;;;;12.38;100.00;99350.50;1684498;83;21009;-64
2021/08/21 01:07:28;;;;;;;;;;;;;;;12.36;100.00;99353.99;1636866;85;21061;-63
2021/08/21 01:10:01;;;;;;;26.35;15.43;;;;;;;12.27;100.00;99352.37;1632537;86;20154;-63
2021/08/21 01:12:29;;;;;;;22.22;15.83;;;;;;;12.15;100.00;99349.97;1622335;86;21446;-64
2021/08/21 01:14:56;;;;;;;22.05;16.48;;;;;;;12.06;100.00;99354.27;1622825;86;21021;-63
2021/08/21 01:17:24;;;;;;;21.02;16.12;;;;;;;12.04;100.00;99351.58;1644859;86;26747;-63
2021/08/21 01:19:52;;;;;;;24.50;17.30;;;;;;;12.05;100.00;99348.59;1617689;86;20921;-63
2021/08/21 01:22:24;;;;;;;21.95;16.65;;;;;;;12.10;100.00;99349.97;1632558;85;21175;-63
2021/08/21 01:24:53;;;;;;;21.23;16.02;;;;;;;12.08;100.00;99344.05;1622071;86;21839;-63
2021/08/21 01:27:23;;;;;;;;;;;;;;;11.96;100.00;99348.34;1665689;84;21047;-63
2021/08/21 01:29:52;;;;;;;24.10;17.90;;;;;;;11.88;100.00;99349.39;1634799;85;20102;-64
2021/08/21 01:32:27;;;;;;;25.80;16.32;;;;;;;11.76;100.00;99350.44;1622372;86;21061;-63
2021/08/21 01:34:56;;;;;;;19.55;15.40;;;;;;;11.65;100.00;99354.71;1672325;84;21475;-64
2021/08/21 01:37:24;;;;;;;25.97;17.37;;;;;;;11.57;100.00;99359.53;1641595;85;21214;-63
2021/08/21 01:39:53;;;;;;;22.37;16.05;;;;;;;11.55;100.00;99354.15;1641170;84;21087;-65
2021/08/21 01:42:27;;;;;;;25.55;17.15;;;;;;;11.46;100.00;99351.16;1636644;85;21513;-62
2021/08/21 01:44:54;;;;;;;21.25;16.27;;;;;;;11.43;100.00;99353.58;1635868;85;20901;-63
2021/08/21 01:47:22;;;;;;;22.20;16.75;;;;;;;11.45;100.00;99348.75;1634852;86;21689;-63
2021/08/21 01:49:55;;;;;;;30.95;17.42;;;;;;;11.47;100.00;99349.30;1636340;85;21130;-64
2021/08/21 01:52:21;;;;;;;21.97;17.50;;;;;;;11.48;100.00;99347.67;1624088;86;21087;-63
2021/08/21 01:54:49;;;;;;;28.80;17.73;;;;;;;11.52;100.00;99345.28;1678102;84;21690;-62
2021/08/21 01:57:16;;;;;;;26.55;18.07;;;;;;;11.49;100.00;99345.78;1639194;85;21075;-63
2021/08/21 01:59:51;;;;;;;25.77;17.75;;;;;;;11.38;100.00;99347.10;1644066;86;21302;-64
2021/08/21 02:02:25;;;;;;;23.62;17.67;;;;;;;11.31;100.00;99351.91;1628506;86;21115;-63
2021/08/21 02:04:54;;;;;;;26.10;17.82;;;;;;;11.26;100.00;99353.23;1680383;83;21041;-63
2021/08/21 02:07:20;;;;;;;26.93;17.75;;;;;;;11.23;100.00;99351.09;1628507;84;21126;-65
2021/08/21 02:09:47;;;;;;;30.52;17.00;;;;;;;11.20;100.00;99356.19;1636149;86;21063;-64
2021/08/21 02:12:16;;;;;;;26.17;15.78;;;;;;;11.13;100.00;99346.48;1638306;86;20845;-64
2021/08/21 02:14:45;;;;;;;22.42;16.40;;;;;;;11.11;100.00;99351.84;1622865;86;21212;-65
2021/08/21 02:17:12;;;;;;;23.57;15.72;;;;;;;11.10;100.00;99347.55;1642182;86;21064;-64
2021/08/21 02:19:42;;;;;;;29.20;14.85;;;;;;;11.08;100.00;99357.74;1633428;85;20996;-64
2021/08/21 02:22:11;;;;;;;21.62;15.90;;;;;;;11.05;100.00;99359.08;1633027;86;21003;-64
2021/08/21 02:24:40;;;;;;;23.10;18.35;;;;;;;11.06;100.00;99361.22;1632510;86;21364;-62
2021/08/21 02:27:07;;;;;;;23.90;17.17;;;;;;;11.06;100.00;99365.25;1626891;86;21868;-63
2021/08/21 02:29:33;;;;;;;26.87;18.30;;;;;;;11.10;100.00;99360.44;1633033;86;20920;-62
2021/08/21 02:32:00;;;;;;;27.70;18.70;;;;;;;11.12;100.00;99354.28;1626516;86;20987;-63
2021/08/21 02:34:32;;;;;;;31.40;20.50;;;;;;;11.10;100.00;99355.06;1633360;85;21458;-62
2021/08/21 02:36:56;;;;;;;25.70;18.02;;;;;;;11.06;100.00;99352.63;1673778;84;21413;-64
2021/08/21 02:39:22;;;;;;;25.35;17.87;;;;;;;11.00;100.00;99352.34;1644313;85;21045;-64
2021/08/21 02:41:48;;;;;;;31.30;19.90;;;;;;;10.98;100.00;99349.64;1684587;84;22185;-62
2021/08/21 02:44:16;;;;;;;24.75;20.00;;;;;;;10.99;100.00;99349.36;1639877;85;21060;-63
2021/08/21 02:46:42;;;;;;;29.72;19.62;;;;;;;11.01;100.00;99350.45;1639991;85;21291;-62
2021/08/21 02:49:10;;;;;;;32.90;19.27;;;;;;;11.03;100.00;99351.01;1625640;86;20958;-63
2021/08/21 02:51:37;;;;;;;35.13;19.43;;;;;;;11.02;100.00;99347.49;1641103;86;21205;-64
2021/08/21 02:54:04;;;;;;;31.75;19.80;;;;;;;11.00;100.00;99349.66;1629889;86;21516;-63
2021/08/21 02:56:31;;;;;;;30.82;18.90;;;;;;;10.95;100.00;99355.00;1620287;86;20912;-63
2021/08/21 02:58:58;;;;;;;25.27;17.67;;;;;;;10.89;100.00;99358.17;1633932;86;21487;-64
2021/08/21 03:01:26;;;;;;;35.15;19.07;;;;;;;10.83;100.00;99352.52;1645432;85;20897;-63
2021/08/21 03:03:53;;;;;;;38.30;22.80;;;;;;;10.83;100.00;99350.38;1620783;87;21127;-62
2021/08/21 03:06:20;;;;;;;35.60;19.77;;;;;;;10.80;100.00;99353.02;1666660;84;21085;-63
2021/08/21 03:08:47;;;;;;;33.63;18.80;;;;;;;10.80;100.00;99348.19;1632557;84;21068;-63
2021/08/21 03:11:15;;;;;;;35.40;18.47;;;;;;;10.77;100.00;99346.83;1662990;85;20992;-62
2021/08/21 03:13:46;;;;;;;26.02;17.60;;;;;;;10.77;100.00;99352.20;1669082;84;21310;-63
2021/08/21 03:16:13;;;;;;;33.65;18.10;;;;;;;10.78;100.00;99348.47;1639899;85;21779;-63
2021/08/21 03:18:40;;;;;;;27.73;19.30;;;;;;;10.82;100.00;99352.77;1678053;83;21008;-63
2021/08/21 03:21:06;;;;;;;30.10;19.27;;;;;;;10.81;100.00;99355.99;1646817;85;21529;-62
2021/08/21 03:23:33;;;;;;;24.55;17.07;;;;;;;10.83;100.00;99357.09;1640797;85;21002;-64
2021/08/21 03:26:00;;;;;;;20.62;17.42;;;;;;;10.83;100.00;99352.52;1639604;85;20973;-63
2021/08/21 03:28:27;;;;;;;27.00;17.75;;;;;;;10.86;100.00;99353.33;1655594;85;21184;-64
2021/08/21 03:30:53;;;;;;;26.93;18.25;;;;;;;10.93;100.00;99346.39;1640348;85;21111;-63
2021/08/21 03:33:22;;;;;;;;;;;;;;;11.04;100.00;99348.58;1638128;86;21078;-64
2021/08/21 03:35:49;;;;;;;27.45;18.90;;;;;;;11.13;100.00;99354.54;1639825;85;20162;-63
2021/08/21 03:38:16;;;;;;;30.68;17.95;;;;;;;11.16;100.00;99351.86;1643487;85;21029;-64
2021/08/21 03:40:44;;;;;;;;;;;;;;;11.16;100.00;99355.89;1644117;85;21091;-65
2021/08/21 03:43:12;;;;;;;30.62;17.62;;;;;;;11.21;100.00;99358.59;1636194;86;20137;-63
2021/08/21 03:45:41;;;;;;;33.83;18.57;;;;;;;11.29;100.00;99355.42;1636074;86;20874;-63
2021/08/21 03:48:10;;;;;;;33.07;19.53;;;;;;;11.38;100.00;99356.50;1631198;86;20981;-65
2021/08/21 03:50:37;;;;;;;26.80;16.97;;;;;;;11.49;100.00;99352.50;1638729;86;21361;-63
2021/08/21 03:53:04;;;;;;;25.57;16.93;;;;;;;11.59;100.00;99349.87;1649537;85;21143;-64
2021/08/21 03:55:33;;;;;;;27.02;18.15;;;;;;;11.69;100.00;99353.92;1636111;86;21099;-64
2021/08/21 03:58:01;;;;;;;23.77;18.50;;;;;;;11.80;100.00;99357.42;1640165;86;21476;-64
2021/08/21 04:00:28;;;;;;;29.98;18.77;;;;;;;11.95;100.00;99360.16;1663774;84;20913;-65
2021/08/21 04:02:57;;;;;;;26.80;19.07;;;;;;;12.07;100.00;99361.79;1631983;85;21073;-64
2021/08/21 04:05:28;;;;;;;;;;;;;;;12.20;100.00;99353.20;1633630;86;21920;-64
2021/08/21 04:07:53;;;;;;;19.37;16.87;;;;;;;12.35;100.00;99353.19;1630366;86;20389;-64
2021/08/21 04:10:20;;;;;;;22.85;16.45;;;;;;;12.49;100.00;99356.67;1632827;85;21043;-64
2021/08/21 04:12:47;;;;;;;21.48;17.15;;;;;;;12.60;100.00;99356.39;1627260;85;21088;-65
2021/08/21 04:15:15;;;;;;;24.00;17.70;;;;;;;12.74;100.00;99355.81;1640552;85;26737;-65
2021/08/21 04:17:42;;;;;;;23.30;16.07;;;;;;;12.84;100.00;99360.66;1659643;84;21887;-63
2021/08/21 04:20:10;;;;;;;23.95;16.62;;;;;;;12.97;100.00;99355.23;1649664;86;21057;-64
2021/08/21 04:22:39;;;;;;;21.52;16.17;;;;;;;13.13;100.00;99353.82;1637612;86;20937;-64
2021/08/21 04:25:08;;;;;;;21.15;15.20;;;;;;;13.31;100.00;99364.03;1665599;84;20992;-65
2021/08/21 04:27:35;;;;;;;19.35;15.38;;;;;;;13.49;100.00;99361.25;1644409;86;20993;-65
2021/08/21 04:30:01;;;;;;;21.05;14.45;;;;;;;13.66;100.00;99359.54;1669939;84;21145;-64
2021/08/21 04:32:28;;;;;;;17.77;15.00;;;;;;;13.84;100.00;99371.56;1633441;84;20980;-65
2021/08/21 04:34:54;;;;;;;18.17;14.50;;;;;;;13.94;100.00;99364.77;1636460;86;21450;-64
2021/08/21 04:37:21;;;;;;;21.85;14.33;;;;;;;14.12;100.00;99368.69;1636627;86;20949;-64
2021/08/21 04:39:48;;;;;;;21.23;13.98;;;;;;;14.22;100.00;99373.20;1638432;85;21356;-65
2021/08/21 04:42:16;;;;;;;18.77;13.15;;;;;;;14.32;100.00;99371.21;1633158;86;21749;-65
2021/08/21 04:44:43;;;;;;;19.85;13.88;;;;;;;14.49;100.00;99372.16;1655535;85;21042;-64
2021/08/21 04:47:11;;;;;;;20.30;14.37;;;;;;;14.74;100.00;99377.08;1623184;87;20977;-66
2021/08/21 04:49:38;;;;;;;18.15;13.75;;;;;;;14.95;100.00;99379.84;1627878;86;21031;-64
2021/08/21 04:52:06;;;;;;;19.17;12.93;;;;;;;15.17;100.00;99380.68;1651246;84;21037;-65
2021/08/21 04:54:34;;;;;;;21.73;12.07;;;;;;;15.38;100.00;99387.98;1622077;87;21133;-66
2021/08/21 04:57:02;;;;;;;16.93;12.60;;;;;;;15.62;100.00;99377.69;1628883;86;21466;-66
2021/08/21 04:59:31;;;;;;;14.60;11.33;;;;;;;15.75;100.00;99386.48;1656653;85;20969;-65
2021/08/21 05:01:59;;;;;;;20.15;13.22;;;;;;;15.86;100.00;99385.22;1634273;85;21001;-65
2021/08/21 05:04:26;;;;;;;16.50;12.88;;;;;;;15.89;100.00;99387.09;1660078;84;21231;-64
2021/08/21 05:06:53;;;;;;;23.38;13.50;;;;;;;15.96;100.00;99390.23;1643394;85;21198;-65
2021/08/21 05:09:19;;;;;;;16.93;11.78;;;;;;;16.01;100.00;99390.96;1657802;85;21458;-65
2021/08/21 05:11:49;;;;;;;15.25;11.20;;;;;;;16.12;100.00;99390.80;1614188;86;20957;-67
2021/08/21 05:14:17;;;;;;;17.87;12.43;;;;;;;16.23;100.00;99389.55;1680110;83;21005;-66
2021/08/21 05:16:46;;;;;;;18.50;12.10;;;;;;;16.50;100.00;99387.48;1653305;85;21077;-66
2021/08/21 05:19:34;;;;;;;17.45;12.10;;;;;;;16.83;100.00;99394.25;1623040;86;21109;-65
2021/08/21 05:22:20;;;;;;;16.87;11.85;;;;;;;17.17;100.00;99396.59;1635369;86;21056;-65
2021/08/21 05:24:27;;;;;;;19.52;11.80;;;;;;;17.35;100.00;99396.26;1625414;86;21039;-66
2021/08/21 05:26:54;;;;;;;16.97;12.90;;;;;;;17.61;100.00;99409.28;1632887;86;21074;-65
2021/08/21 05:29:21;;;;;;;19.90;12.93;;;;;;;17.92;100.00;99406.19;1634093;87;20982;-66
2021/08/21 05:31:47;;;;;;;24.00;12.93;;;;;;;18.09;100.00;99403.38;1628755;87;21160;-67
2021/08/21 05:34:14;;;;;;;22.80;12.07;;;;;;;18.37;100.00;99404.05;1627440;86;21264;-66
2021/08/21 05:36:40;;;;;;;18.20;12.37;;;;;;;18.45;100.00;99407.41;1614273;87;21113;-67
2021/08/21 05:39:08;;;;;;;18.10;11.28;;;;;;;18.50;100.00;99407.84;1632754;86;21058;-66
2021/08/21 05:41:35;;;;;;;16.02;11.40;;;;;;;18.81;100.00;99407.34;1637591;86;21466;-64
2021/08/21 05:44:01;;;;;;;19.30;11.88;;;;;;;19.17;100.00;99409.65;1626597;87;21100;-64
2021/08/21 05:46:28;;;;;;;18.45;12.60;;;;;;;19.10;100.00;99405.22;1626814;85;21270;-64
2021/08/21 05:48:56;;;;;;;17.23;11.05;;;;;;;19.36;100.00;99411.56;1637263;86;21682;-63
2021/08/21 05:51:23;;;;;;;21.65;11.50;;;;;;;19.62;100.00;99409.45;1648254;86;20913;-64
2021/08/21 05:53:49;;;;;;;15.90;9.50;;;;;;;20.02;100.00;99412.11;1656099;85;21042;-64
2021/08/21 05:56:17;;;;;;;16.85;9.90;;;;;;;20.32;100.00;99413.86;1653706;86;21765;-64
2021/08/21 05:58:43;;;;;;;15.13;9.50;;;;;;;20.57;100.00;99414.17;1665690;84;21008;-65
2021/08/21 06:01:09;;;;;;;19.40;11.03;;;;;;;20.75;100.00;99410.87;1670076;84;21489;-64
2021/08/21 06:03:36;;;;;;;14.18;10.43;;;;;;;20.85;100.00;99406.42;1653432;86;21082;-63
2021/08/21 06:06:02;;;;;;;17.67;10.53;;;;;;;20.98;100.00;99408.13;1651015;86;21311;-65
2021/08/21 06:08:29;;;;;;;18.50;10.28;;;;;;;21.12;100.00;99405.20;1656465;85;21134;-65
2021/08/21 06:10:58;;;;;;;14.45;9.40;;;;;;;21.13;100.00;99410.88;1659275;85;21034;-65
2021/08/21 06:13:25;;;;;;;15.00;11.28;;;;;;;20.94;100.00;99414.56;1656600;85;21473;-64
2021/08/21 06:15:53;;;;;;;13.58;9.33;;;;;;;21.23;100.00;99417.91;1672368;85;21009;-64
2021/08/21 06:18:20;;;;;;;9.98;7.53;;;;;;;21.60;100.00;99414.92;1645725;85;21108;-64
2021/08/21 06:20:46;;;;;;;12.43;8.83;;;;;;;21.86;100.00;99418.64;1626477;87;21062;-64
2021/08/21 06:23:13;;;;;;;10.80;8.05;;;;;;;21.93;100.00;99418.91;1629514;87;21119;-65
2021/08/21 06:25:39;;;;;;;14.50;7.97;;;;;;;22.01;100.00;99417.46;1657192;86;21050;-64
2021/08/21 06:28:06;;;;;;;9.43;6.80;;;;;;;22.13;100.00;99418.09;1639989;86;21038;-64
2021/08/21 06:30:33;;;;;;;10.88;6.90;;;;;;;22.16;96.05;99418.00;1658038;84;21457;-64
2021/08/21 06:32:59;;;;;;;10.55;7.22;;;;;;;22.31;95.53;99424.23;1661781;84;21095;-64
2021/08/21 06:35:26;;;;;;;7.62;5.97;;;;;;;22.55;92.58;99424.91;1667526;84;21426;-64
2021/08/21 06:37:52;;;;;;;9.13;6.65;;;;;;;22.59;91.33;99426.42;1667502;85;21172;-65
2021/08/21 06:40:18;;;;;;;11.63;6.72;;;;;;;22.99;89.58;99425.84;1658716;84;21066;-65
2021/08/21 06:42:45;;;;;;;10.50;7.17;;;;;;;22.92;86.11;99434.58;1657182;85;21098;-65
2021/08/21 06:45:14;;;;;;;9.25;6.92;;;;;;;22.83;87.67;99431.13;1663052;84;21146;-65
2021/08/21 06:47:40;;;;;;;9.65;7.40;;;;;;;23.06;89.76;99427.45;1648053;85;21002;-66
2021/08/21 06:50:09;;;;;;;7.97;6.72;;;;;;;22.75;90.83;99430.66;1637632;85;21531;-65
2021/08/21 06:52:36;;;;;;;8.13;5.45;;;;;;;22.82;91.60;99427.60;1655569;85;20994;-66
2021/08/21 06:55:04;;;;;;;7.03;5.15;;;;;;;22.79;83.79;99439.23;1647614;85;21042;-64
2021/08/21 06:57:31;;;;;;;9.00;6.20;;;;;;;22.93;83.29;99434.83;1650346;85;21085;-65
2021/08/21 06:59:57;;;;;;;6.20;5.20;;;;;;;23.17;80.85;99434.07;1648571;85;21586;-64
2021/08/21 07:02:25;;;;;;;14.03;5.75;;;;;;;23.50;79.47;99431.23;1669021;85;20911;-64
2021/08/21 07:04:53;;;;;;;8.85;5.30;;;;;;;23.75;75.94;99437.52;1647984;85;21569;-65
2021/08/21 07:07:19;;;;;;;8.73;5.08;;;;;;;23.81;76.34;99436.70;1647791;85;21141;-65
2021/08/21 07:09:47;;;;;;;10.30;5.85;;;;;;;23.28;74.95;99442.08;1634057;85;23160;-65
2021/08/21 07:12:14;;;;;;;9.35;4.75;;;;;;;23.49;77.87;99439.78;1640532;85;20912;-65
2021/08/21 07:14:40;;;;;;;10.10;5.60;;;;;;;23.88;78.61;99442.98;1653138;85;21517;-65
2021/08/21 07:17:08;;;;;;;9.13;5.20;;;;;;;23.96;78.21;99445.60;1639891;85;21035;-65
2021/08/21 07:19:34;;;;;;;;;;;;;;;24.21;76.11;99446.11;1635375;85;21514;-65
2021/08/21 07:22:01;;;;;;;8.28;4.70;;;;;;;23.99;71.64;99445.48;1653770;85;21136;-65
2021/08/21 07:24:27;;;;;;;11.67;4.53;;;;;;;24.02;73.09;99440.67;1640376;85;20907;-66
2021/08/21 07:26:54;;;;;;;11.38;4.97;;;;;;;24.14;73.45;99442.01;1634431;86;21774;-65
2021/08/21 07:29:20;;;;;;;8.58;5.33;;;;;;;24.17;73.14;99449.53;1640370;85;21481;-65
2021/08/21 07:31:47;;;;;;;7.08;3.92;;;;;;;24.02;75.83;99449.47;1633901;85;21088;-65
2021/08/21 07:34:13;;;;;;;5.15;3.95;;;;;;;24.16;71.45;99448.53;1651019;86;21134;-64
2021/08/21 07:36:40;;;;;;;7.37;4.25;;;;;;;24.21;68.88;99455.72;1631239;85;21142;-65
2021/08/21 07:39:06;;;;;;;25.48;6.22;;;;;;;24.71;68.45;99458.50;1630652;85;21044;-65
2021/08/21 07:41:35;;;;;;;8.45;4.70;;;;;;;24.92;66.49;99450.84;1646428;85;20977;-65
2021/08/21 07:44:02;;;;;;;10.72;4.20;;;;;;;24.97;67.33;99454.70;1632354;85;21047;-65
2021/08/21 07:46:31;;;;;;;7.67;5.10;;;;;;;24.68;68.38;99457.84;1660966;84;21092;-66
2021/08/21 07:48:57;;;;;;;7.58;3.95;;;;;;;24.79;63.11;99454.23;1646437;85;21024;-64
2021/08/21 07:51:24;;;;;;;9.00;4.37;;;;;;;25.24;62.71;99457.17;1649977;85;21028;-64
2021/08/21 07:53:50;;;;;;;10.70;5.20;;;;;;;24.94;65.09;99454.04;1628983;86;20978;-64
2021/08/21 07:56:17;;;;;;;8.23;5.30;;;;;;;25.01;65.71;99454.23;1637179;85;21482;-64
2021/08/21 07:58:44;;;;;;;9.23;4.47;;;;;;;25.13;65.62;99458.02;1622356;85;21142;-65
2021/08/21 08:01:10;;;;;;;5.67;3.83;;;;;;;25.06;60.33;99458.63;1643451;86;21455;-64
2021/08/21 08:03:36;;;;;;;9.23;4.12;;;;;;;25.29;59.19;99452.58;1627028;85;20951;-64
2021/08/21 08:06:03;;;;;;;7.20;4.00;;;;;;;25.29;59.85;99454.75;1634155;86;21301;-64
2021/08/21 08:08:30;;;;;;;5.78;3.50;;;;;;;25.27;59.83;99459.79;1618043;87;21158;-64
2021/08/21 08:10:56;;;;;;;5.93;3.70;;;;;;;25.33;59.07;99461.69;1626767;87;21094;-66
2021/08/21 08:13:23;;;;;;;4.33;3.70;;;;;;;25.41;58.46;99456.61;1633163;85;21057;-65
2021/08/21 08:15:50;;;;;;;10.53;4.40;;;;;;;25.45;57.88;99452.80;1634817;87;21025;-64
2021/08/21 08:18:16;;;;;;;6.58;3.77;;;;;;;25.78;58.01;99457.08;1617704;87;21048;-64
2021/08/21 08:20:42;;;;;;;5.17;3.30;;;;;;;25.88;56.75;99458.50;1616982;87;20969;-64
2021/08/21 08:23:11;;;;;;;5.15;3.08;;;;;;;25.93;56.24;99454.09;1630157;85;21084;-64
2021/08/21 08:25:38;;;;;;;6.40;3.42;;;;;;;24.62;53.64;99450.45;1620506;86;20955;-64
2021/08/21 08:28:05;;;;;;;4.10;2.45;;;;;;;24.86;54.51;99452.82;1624324;86;21413;-62
2021/08/21 08:30:32;;;;;;;5.15;2.75;;;;;;;25.05;54.99;99457.05;1630484;86;20989;-61
2021/08/21 08:32:59;;;;;;;4.53;3.55;;;;;;;24.87;54.33;99420.91;1624401;87;21461;-63
2021/08/21 08:35:25;;;;;;;5.67;4.17;;;;;;;25.08;55.35;99452.22;1626537;87;21149;-62
2021/08/21 08:37:52;;;;;;;6.58;3.90;;;;;;;25.29;54.96;99452.00;1608360;88;21709;-63
2021/08/21 08:40:19;;;;;;;12.10;3.52;;;;;;;25.56;53.17;99457.16;1630032;85;21131;-63
2021/08/21 08:42:45;;;;;;;4.87;3.60;;;;;;;25.44;54.03;99452.56;1637257;86;21166;-62
2021/08/21 08:45:13;;;;;;;9.13;3.80;;;;;;;25.11;54.95;99454.28;1625171;86;21135;-63
2021/08/21 08:47:41;;;;;;;8.45;3.58;;;;;;;25.68;53.19;99453.52;1629117;86;21906;-63
2021/08/21 08:50:11;;;;;;;5.00;3.47;;;;;;;26.02;53.93;99451.95;1624103;86;20901;-63
2021/08/21 08:52:39;;;;;;;6.92;3.45;;;;;;;26.32;51.05;99456.09;1628046;85;21119;-63
2021/08/21 08:55:07;;;;;;;10.00;3.12;;;;;;;26.48;49.20;99456.80;1620886;85;21455;-62
2021/08/21 08:57:41;;;;;;;9.05;3.37;;;;;;;26.44;47.82;99455.37;1646703;86;21025;-62
2021/08/21 09:00:15;;;;;;;3.60;3.00;;;;;;;26.44;47.51;99455.95;1647357;86;21145;-63
2021/08/21 09:02:44;;;;;;;8.78;4.00;;;;;;;26.47;46.71;99456.01;1644345;85;21047;-62
2021/08/21 09:05:13;;;;;;;6.45;3.55;;;;;;;26.30;47.49;99456.45;1641887;85;20865;-63
2021/08/21 09:07:54;;;;;;;7.87;5.87;;;;;;;26.21;46.11;99460.80;1633168;86;21064;-63
2021/08/21 09:10:27;;;;;;;6.37;3.30;;;;;;;26.27;44.71;99458.55;1634870;86;21128;-63
2021/08/21 09:13:13;;;;;;;3.50;3.20;;;;;;;25.89;44.82;99457.34;1632047;85;21128;-62
2021/08/21 09:15:47;;;;;;;5.55;2.85;;;;;;;26.46;45.81;99455.80;1642029;85;20980;-64
2021/08/21 09:18:25;;;;;;;6.72;3.00;;;;;;;26.61;44.41;99461.03;1642032;85;21060;-63
2021/08/21 09:20:58;;;;;;;3.95;2.90;;;;;;;26.53;46.24;99453.78;1681447;84;21033;-64
2021/08/21 09:23:31;;;;;;;4.67;2.87;;;;;;;26.54;44.94;99449.09;1673632;84;21581;-63
2021/08/21 09:26:09;;;;;;;5.17;3.12;;;;;;;26.20;46.24;99455.66;1636109;86;21189;-64
2021/08/21 09:28:39;;;;;;;8.60;3.52;;;;;;;26.43;47.49;99456.51;1638581;86;21032;-63
2021/08/21 09:31:08;;;;;;;8.33;2.85;;;;;;;26.61;44.83;99454.74;1626943;87;21043;-63
2021/08/21 09:33:38;;;;;;;6.72;3.20;;;;;;;26.70;44.99;99458.04;1632282;85;21106;-63
2021/08/21 09:36:05;;;;;;;6.95;3.10;;;;;;;27.10;45.30;99453.47;1634061;85;20945;-64
2021/08/21 09:38:33;;;;;;;4.53;2.93;;;;;;;27.36;43.77;99454.70;1627206;85;21769;-62
2021/08/21 09:41:03;;;;;;;4.45;3.10;;;;;;;27.24;43.24;99454.89;1625501;86;21974;-63
2021/08/21 09:43:33;;;;;;;4.40;2.98;;;;;;;27.12;42.72;99456.66;1630607;86;20960;-62
2021/08/21 09:46:20;;;;;;;7.75;2.87;;;;;;;27.58;44.08;99461.34;1645148;85;21150;-63
2021/08/21 09:49:01;;;;;;;6.22;2.90;;;;;;;27.01;43.34;99458.42;1636641;86;21501;-62
2021/08/21 09:51:48;;;;;;;5.50;3.15;;;;;;;26.06;46.48;99458.89;1633390;85;21112;-63
2021/08/21 09:54:17;;;;;;;7.03;3.17;;;;;;;25.57;48.17;99449.12;1643317;85;21435;-62
2021/08/21 09:56:54;;;;;;;5.75;3.15;;;;;;;25.70;47.22;99450.39;1669331;82;20958;-64
2021/08/21 09:59:36;;;;;;;4.70;2.90;;;;;;;26.00;47.17;99448.75;1630302;85;21004;-63
2021/08/21 10:02:12;;;;;;;4.90;3.12;;;;;;;26.57;46.01;99455.24;1662235;85;22157;-65
2021/08/21 10:04:42;;;;;;;4.67;2.95;;;;;;;26.83;45.29;99448.47;1655262;84;21183;-64
2021/08/21 10:07:13;;;;;;;2.65;2.30;;;;;;;27.01;43.59;99463.92;1674435;84;20912;-64
2021/08/21 10:09:40;;;;;;;5.85;2.50;;;;;;;27.06;42.32;99451.23;1672355;84;21505;-64
2021/08/21 10:12:07;;;;;;;;;;;;;;;27.15;44.17;99464.77;1681604;83;20970;-63
2021/08/21 10:14:34;;;;;;;3.90;2.92;;;;;;;27.60;43.95;99454.09;1669589;84;20126;-64
2021/08/21 10:17:01;;;;;;;5.53;2.80;;;;;;;27.97;42.14;99456.42;1676125;84;21204;-63
2021/08/21 10:19:28;;;;;;;;;;;;;;;28.07;41.75;99459.12;1674372;83;20998;-63
2021/08/21 10:21:59;;;;;;;2.60;2.37;;;;;;;27.71;36.95;99449.55;1690145;84;20171;-64
2021/08/21 10:24:36;;;;;;;5.80;2.50;;;;;;;27.42;38.46;99463.47;1685117;84;20970;-64
2021/08/21 10:27:11;;;;;;;;;;;;;;;27.47;37.48;99454.30;1691869;84;20993;-64
2021/08/21 10:29:38;;;;;;;5.28;2.70;;;;;;;27.19;39.18;99451.86;1682660;84;21158;-64
2021/08/21 10:32:07;;;;;;;3.77;2.22;;;;;;;27.19;39.64;99452.45;1674063;84;21372;-65
2021/08/21 10:34:51;;;;;;;3.83;2.25;;;;;;;27.10;39.00;99441.08;1689213;84;21171;-65
2021/08/21 10:37:40;;;;;;;3.05;2.55;;;;;;;27.18;39.26;99455.76;1680582;84;21040;-65
2021/08/21 10:40:31;;;;;;;3.25;2.33;;;;;;;27.20;39.95;99453.47;1666373;84;21009;-65
2021/08/21 10:43:03;;;;;;;7.17;2.92;;;;;;;27.73;39.94;99453.52;1677140;84;21741;-64
2021/08/21 10:45:43;;;;;;;4.37;2.12;;;;;;;28.34;37.84;99451.58;1665095;84;20900;-64
2021/08/21 10:48:16;;;;;;;4.33;2.15;;;;;;;27.98;36.72;99448.97;1636636;85;20993;-65
2021/08/21 10:50:45;;;;;;;3.08;2.70;;;;;;;27.73;36.99;99452.70;1650622;85;21451;-64
2021/08/21 10:53:25;;;;;;;3.30;2.25;;;;;;;27.22;39.11;99450.33;1638057;86;21152;-65
2021/08/21 10:55:53;;;;;;;3.52;2.50;;;;;;;27.50;38.29;99446.66;1642583;85;21097;-64
2021/08/21 10:58:25;;;;;;;3.67;2.17;;;;;;;27.77;37.33;99447.45;1638861;85;20894;-64
2021/08/21 11:01:03;;;;;;;4.03;2.35;;;;;;;27.79;38.00;99448.47;1645765;85;20901;-65
2021/08/21 11:03:35;;;;;;;2.58;2.30;;;;;;;28.00;38.41;99449.36;1650832;85;21090;-63
2021/08/21 11:06:04;;;;;;;4.40;2.30;;;;;;;28.08;37.18;99451.07;1651231;85;21061;-64
2021/08/21 11:08:37;;;;;;;4.60;2.00;;;;;;;27.87;36.32;99438.36;1640362;86;21143;-65
2021/08/21 11:11:22;;;;;;;3.45;2.20;;;;;;;27.91;37.18;99437.25;1625424;86;21552;-64
2021/08/21 11:14:06;;;;;;;8.28;2.37;;;;;;;27.76;36.81;99442.33;1631987;85;21026;-65
2021/08/21 11:16:49;;;;;;;3.70;2.12;;;;;;;27.75;36.82;99436.00;1642659;85;20988;-64
2021/08/21 11:19:40;;;;;;;5.33;2.52;;;;;;;27.95;36.33;99438.10;1648452;85;20853;-65
2021/08/21 11:22:14;;;;;;;3.90;2.62;;;;;;;28.10;36.01;99435.50;1656911;83;21137;-64
2021/08/21 11:25:06;;;;;;;4.65;2.40;;;;;;;27.56;36.36;99431.97;1626983;85;20973;-64
2021/08/21 11:27:36;;;;;;;5.70;3.00;;;;;;;27.64;37.34;99424.03;1634880;85;21215;-66
2021/08/21 11:30:10;;;;;;;3.08;2.30;;;;;;;27.75;37.34;99424.97;1651008;86;20950;-64